Time;durP1;ratioP1;P1;durP2;ratioP2;P2;SDS_P1;SDS_P2;PMS_P1;PMS_P2;Temp;Humidity;BMP_temperature;BMP_pressure;BME280_temperature;BME280_humidity;BME280_pressure;Samples;Min_cycle;Max_cycle;Signal;HPM_P1;HPM_P2
2023/04/25 00:01:39;;;;;;;14.27;5.70;;;8.60;94.90;;;;;;5073006;28;20495;-57
2023/04/25 00:04:06;;;;;;;10.17;5.40;;;8.50;95.10;;;;;;5073139;28;20479;-58
2023/04/25 00:06:36;;;;;;;11.47;6.10;;;8.50;95.40;;;;;;5073144;28;20487;-57
2023/04/25 00:09:03;;;;;;;13.93;6.37;;;8.50;95.60;;;;;;5073162;28;20519;-57
2023/04/25 00:11:30;;;;;;;13.30;5.07;;;8.50;95.70;;;;;;5073670;28;20440;-57
2023/04/25 00:13:57;;;;;;;16.33;6.67;;;8.50;95.70;;;;;;5073447;28;20472;-57
2023/04/25 00:16:24;;;;;;;14.53;6.23;;;8.50;95.80;;;;;;5073215;28;20452;-57
2023/04/25 00:18:53;;;;;;;15.53;7.23;;;8.50;95.70;;;;;;5073330;28;20448;-57
2023/04/25 00:21:21;;;;;;;17.20;5.50;;;8.50;95.80;;;;;;5072865;28;20449;-57
2023/04/25 00:23:49;;;;;;;11.77;5.47;;;8.50;95.90;;;;;;5073706;28;20542;-57
2023/04/25 00:26:15;;;;;;;13.43;5.77;;;8.40;95.90;;;;;;5072781;28;20934;-57
2023/04/25 00:28:42;;;;;;;13.80;5.77;;;8.40;96.00;;;;;;5073114;28;20448;-57
2023/04/25 00:31:09;;;;;;;11.67;5.50;;;8.40;96.10;;;;;;5073086;28;20448;-57
2023/04/25 00:33:36;;;;;;;14.20;6.47;;;8.30;96.20;;;;;;5072720;28;20861;-57
2023/04/25 00:36:03;;;;;;;14.17;5.43;;;8.40;96.40;;;;;;5073226;28;20444;-57
2023/04/25 00:38:30;;;;;;;16.37;5.93;;;8.40;96.50;;;;;;5072792;28;20962;-57
2023/04/25 00:40:58;;;;;;;14.20;5.87;;;8.30;96.40;;;;;;5072719;28;20859;-57
2023/04/25 00:43:26;;;;;;;15.17;4.80;;;8.30;96.60;;;;;;5072912;28;20488;-57
2023/04/25 00:45:53;;;;;;;12.80;5.50;;;8.30;96.70;;;;;;5073061;28;20447;-57
2023/04/25 00:48:22;;;;;;;11.57;6.20;;;8.20;96.90;;;;;;5072985;28;20448;-57
2023/04/25 00:50:52;;;;;;;19.37;7.20;;;8.20;97.10;;;;;;5072679;28;20937;-57
2023/04/25 00:53:19;;;;;;;12.83;6.10;;;8.20;97.20;;;;;;5073903;28;20469;-57
2023/04/25 00:55:46;;;;;;;16.73;5.60;;;8.20;97.40;;;;;;5072900;28;20452;-57
2023/04/25 00:58:14;;;;;;;9.47;5.63;;;8.20;97.70;;;;;;5072949;28;20445;-57
2023/04/25 01:00:42;;;;;;;12.27;5.73;;;8.30;97.80;;;;;;5072873;28;20497;-56
2023/04/25 01:03:10;;;;;;;18.30;6.53;;;8.30;97.80;;;;;;5072662;28;20491;-57
2023/04/25 01:05:36;;;;;;;18.27;6.30;;;8.30;97.90;;;;;;5072513;28;20851;-57
2023/04/25 01:08:03;;;;;;;19.10;6.03;;;8.30;98.10;;;;;;5072505;28;20478;-57
2023/04/25 01:10:30;;;;;;;12.67;6.43;;;8.30;98.30;;;;;;5072690;28;20445;-57
2023/04/25 01:12:57;;;;;;;17.10;6.20;;;8.30;98.50;;;;;;5072567;28;20445;-57
2023/04/25 01:15:25;;;;;;;13.80;5.87;;;8.30;98.60;;;;;;5073139;28;20456;-57
2023/04/25 01:17:52;;;;;;;10.80;5.90;;;8.30;98.80;;;;;;5076288;28;20471;-57
2023/04/25 01:20:22;;;;;;;16.37;6.17;;;8.40;98.80;;;;;;5076241;28;20444;-57
2023/04/25 01:22:50;;;;;;;13.70;6.43;;;8.40;98.70;;;;;;5076093;28;20850;-57
2023/04/25 01:25:18;;;;;;;16.50;7.10;;;8.30;98.80;;;;;;5076074;28;20860;-57
2023/04/25 01:27:45;;;;;;;13.20;6.10;;;8.30;99.10;;;;;;5076113;28;20452;-57
2023/04/25 01:30:12;;;;;;;7.70;5.00;;;8.40;99.10;;;;;;5075757;28;20942;-56
2023/04/25 01:32:39;;;;;;;11.03;5.13;;;8.50;99.20;;;;;;5076107;28;20448;-57
2023/04/25 01:35:08;;;;;;;10.43;4.93;;;8.60;99.20;;;;;;5075862;28;20906;-57
2023/04/25 01:37:36;;;;;;;12.67;5.90;;;8.60;99.10;;;;;;5075622;28;20459;-57
2023/04/25 01:40:05;;;;;;;14.57;6.13;;;8.70;99.00;;;;;;5075522;28;20980;-57
2023/04/25 01:42:33;;;;;;;9.10;5.27;;;8.60;98.80;;;;;;5075710;28;20477;-56
2023/04/25 01:45:00;;;;;;;12.27;5.40;;;8.70;98.80;;;;;;5075367;28;21005;-57
2023/04/25 01:47:26;;;;;;;10.77;5.20;;;8.80;98.70;;;;;;5075375;28;20452;-57
2023/04/25 01:49:53;;;;;;;8.60;5.03;;;8.70;98.40;;;;;;5075530;28;20445;-57
2023/04/25 01:52:20;;;;;;;11.03;6.67;;;8.70;98.30;;;;;;5075593;28;20441;-57
2023/04/25 01:54:47;;;;;;;13.63;5.00;;;8.70;98.30;;;;;;5075433;28;20476;-57
2023/04/25 01:57:15;;;;;;;13.93;5.10;;;8.80;98.30;;;;;;5075492;28;20449;-57
2023/04/25 01:59:43;;;;;;;19.40;6.53;;;8.90;98.50;;;;;;5076102;28;20926;-57
2023/04/25 02:02:10;;;;;;;14.07;5.53;;;8.90;98.40;;;;;;5075495;28;20473;-57
2023/04/25 02:04:37;;;;;;;14.97;5.70;;;9.00;98.40;;;;;;5075366;28;20477;-58
2023/04/25 02:07:04;;;;;;;10.63;5.30;;;9.00;98.30;;;;;;5075325;28;20452;-57
2023/04/25 02:09:31;;;;;;;13.87;5.60;;;9.10;98.40;;;;;;5075212;28;20460;-57
2023/04/25 02:11:58;;;;;;;12.83;5.40;;;9.10;98.30;;;;;;5075346;28;20491;-56
2023/04/25 02:14:26;;;;;;;11.53;4.87;;;9.10;98.30;;;;;;5075150;28;20521;-57
2023/04/25 02:16:53;;;;;;;10.60;5.47;;;9.20;98.30;;;;;;5075132;28;20488;-57
2023/04/25 02:19:20;;;;;;;9.27;4.70;;;9.20;98.30;;;;;;5075144;28;20451;-57
2023/04/25 02:21:47;;;;;;;9.90;5.70;;;9.20;98.10;;;;;;5075044;28;20456;-57
2023/04/25 02:24:14;;;;;;;13.63;4.60;;;9.20;97.80;;;;;;5074994;28;20476;-57
2023/04/25 02:26:40;;;;;;;10.93;5.33;;;9.20;97.90;;;;;;5074997;28;20447;-57
2023/04/25 02:29:07;;;;;;;9.97;5.10;;;9.20;98.20;;;;;;5074943;28;20460;-57
2023/04/25 02:31:35;;;;;;;12.43;6.10;;;9.20;98.20;;;;;;5074891;28;20472;-57
2023/04/25 02:34:02;;;;;;;9.87;5.27;;;9.20;98.20;;;;;;5074908;28;20456;-57
2023/04/25 02:36:32;;;;;;;13.20;5.90;;;9.20;98.20;;;;;;5074765;28;20444;-58
2023/04/25 02:38:58;;;;;;;13.13;5.87;;;9.20;98.30;;;;;;5076266;28;20455;-57
2023/04/25 02:41:25;;;;;;;13.57;6.03;;;9.10;98.20;;;;;;5076039;28;20451;-57
2023/04/25 02:43:52;;;;;;;8.23;5.10;;;9.10;98.10;;;;;;5075331;28;20488;-57
2023/04/25 02:46:18;;;;;;;8.80;5.10;;;9.10;98.20;;;;;;5074957;28;20954;-57
2023/04/25 02:48:46;;;;;;;12.60;5.60;;;9.10;98.00;;;;;;5074721;28;20433;-57
2023/04/25 02:51:13;;;;;;;13.53;5.90;;;9.10;98.00;;;;;;5074925;28;20441;-57
2023/04/25 02:53:40;;;;;;;7.87;4.90;;;9.10;98.10;;;;;;5074945;28;20504;-57
2023/04/25 02:56:07;;;;;;;14.00;5.97;;;9.20;98.20;;;;;;5074466;28;20460;-57
2023/04/25 02:58:33;;;;;;;10.50;5.80;;;9.20;98.20;;;;;;5074507;28;20444;-56
2023/04/25 03:01:00;;;;;;;12.83;5.47;;;9.20;98.20;;;;;;5074358;28;20847;-56
2023/04/25 03:03:27;;;;;;;9.43;5.63;;;9.20;98.20;;;;;;5074128;28;20488;-56
2023/04/25 03:05:55;;;;;;;9.50;5.03;;;9.20;98.30;;;;;;5074245;28;20451;-56
2023/04/25 03:08:22;;;;;;;9.90;5.50;;;9.20;98.30;;;;;;5073836;28;20836;-56
2023/04/25 03:10:50;;;;;;;7.00;5.10;;;9.10;98.20;;;;;;5074239;28;20846;-56
2023/04/25 03:13:16;;;;;;;7.50;4.83;;;9.10;98.10;;;;;;5074094;28;20476;-56
2023/04/25 03:15:43;;;;;;;13.50;5.13;;;9.10;98.10;;;;;;5074012;28;20449;-56
2023/04/25 03:18:10;;;;;;;12.00;4.70;;;9.10;98.10;;;;;;5073713;28;20961;-56
2023/04/25 03:20:36;;;;;;;13.43;6.53;;;9.10;98.10;;;;;;5073953;28;20452;-56
2023/04/25 03:23:04;;;;;;;11.40;6.10;;;9.00;98.10;;;;;;5073699;28;20495;-57
2023/04/25 03:25:31;;;;;;;9.93;5.37;;;9.00;98.10;;;;;;5073842;28;20562;-57
2023/04/25 03:27:58;;;;;;;14.53;6.10;;;8.90;98.20;;;;;;5073908;28;20448;-56
2023/04/25 03:30:24;;;;;;;11.87;6.00;;;8.80;98.30;;;;;;5073782;28;20451;-56
2023/04/25 03:32:51;;;;;;;12.53;5.70;;;8.80;98.50;;;;;;5073447;28;20839;-57
2023/04/25 03:35:18;;;;;;;17.00;5.87;;;8.80;98.60;;;;;;5073700;28;20456;-56
2023/04/25 03:37:45;;;;;;;12.37;6.07;;;8.80;98.80;;;;;;5073596;28;20445;-56
2023/04/25 03:40:13;;;;;;;16.53;6.00;;;8.70;99.00;;;;;;5073332;28;20484;-56
2023/04/25 03:42:40;;;;;;;13.13;6.23;;;8.70;99.10;;;;;;5073425;28;20479;-57
2023/04/25 03:45:08;;;;;;;11.60;5.73;;;8.70;99.20;;;;;;5073219;28;20448;-56
2023/04/25 03:47:35;;;;;;;11.53;5.87;;;8.70;99.20;;;;;;5073543;28;20445;-56
2023/04/25 03:50:02;;;;;;;10.93;6.03;;;8.70;99.20;;;;;;5073425;28;20467;-56
2023/04/25 03:52:29;;;;;;;10.10;5.33;;;8.70;99.20;;;;;;5073455;28;20552;-56
2023/04/25 03:54:56;;;;;;;9.87;6.17;;;8.70;99.30;;;;;;5072983;28;20887;-56
2023/04/25 03:57:24;;;;;;;16.00;5.57;;;8.70;99.20;;;;;;5073383;28;20502;-56
2023/04/25 03:59:51;;;;;;;14.07;6.10;;;8.70;99.30;;;;;;5073403;28;20459;-56
2023/04/25 04:02:19;;;;;;;11.23;6.63;;;8.70;99.20;;;;;;5072990;28;20817;-56
2023/04/25 04:04:45;;;;;;;18.20;5.77;;;8.80;99.30;;;;;;5073278;28;20515;-56
2023/04/25 04:07:12;;;;;;;14.13;6.47;;;8.70;99.30;;;;;;5073181;28;20467;-56
2023/04/25 04:09:39;;;;;;;8.73;5.77;;;8.70;99.30;;;;;;5073229;28;20455;-56
2023/04/25 04:12:06;;;;;;;10.83;5.10;;;8.70;99.30;;;;;;5073240;28;20445;-56
2023/04/25 04:14:34;;;;;;;13.27;5.00;;;8.70;99.40;;;;;;5072896;28;20527;-56
2023/04/25 04:17:01;;;;;;;11.87;5.70;;;8.70;99.40;;;;;;5073207;28;20797;-56
2023/04/25 04:19:27;;;;;;;11.67;5.57;;;8.80;99.30;;;;;;5073232;28;20518;-56
2023/04/25 04:21:54;;;;;;;9.23;5.20;;;8.80;99.40;;;;;;5073266;28;20453;-56
2023/04/25 04:24:21;;;;;;;14.67;5.70;;;8.90;99.40;;;;;;5072940;28;20484;-56
2023/04/25 04:26:48;;;;;;;12.83;5.40;;;8.80;99.20;;;;;;5073078;28;20456;-56
2023/04/25 04:29:20;;;;;;;15.40;6.40;;;8.80;99.20;;;;;;5073213;28;20445;-56
2023/04/25 04:31:49;;;;;;;13.80;5.77;;;8.80;99.20;;;;;;5073158;28;20436;-56
2023/04/25 04:34:16;;;;;;;8.57;5.10;;;8.80;99.30;;;;;;5073056;28;20464;-56
2023/04/25 04:36:43;;;;;;;16.63;5.93;;;8.90;99.20;;;;;;5073096;28;20453;-56
2023/04/25 04:39:10;;;;;;;18.10;5.53;;;8.90;99.10;;;;;;5073822;28;20781;-56
2023/04/25 04:41:37;;;;;;;14.77;6.67;;;8.90;99.10;;;;;;5073004;28;20448;-57
2023/04/25 04:44:04;;;;;;;11.63;5.37;;;8.90;99.10;;;;;;5072948;28;20495;-56
2023/04/25 04:46:31;;;;;;;9.97;5.60;;;8.90;99.10;;;;;;5072913;28;20447;-57
2023/04/25 04:48:59;;;;;;;17.03;6.03;;;8.90;99.10;;;;;;5072608;28;20487;-57
2023/04/25 04:51:25;;;;;;;20.87;7.00;;;8.90;99.00;;;;;;5074985;28;20451;-56
2023/04/25 04:53:52;;;;;;;12.97;4.97;;;8.90;98.90;;;;;;5076800;28;20460;-57
2023/04/25 04:56:20;;;;;;;13.20;4.90;;;8.90;98.80;;;;;;5076671;28;20440;-56
2023/04/25 04:58:48;;;;;;;14.13;5.93;;;9.00;98.80;;;;;;5076661;28;20459;-56
2023/04/25 05:01:16;;;;;;;13.20;4.97;;;8.90;98.60;;;;;;5076639;28;20519;-56
2023/04/25 05:03:42;;;;;;;14.10;4.90;;;8.90;98.60;;;;;;5076441;28;20514;-56
2023/04/25 05:06:10;;;;;;;12.70;5.70;;;8.90;98.80;;;;;;5076554;28;20448;-56
2023/04/25 05:08:37;;;;;;;13.83;5.67;;;9.00;99.00;;;;;;5076207;28;20459;-57
2023/04/25 05:11:04;;;;;;;11.17;5.17;;;9.10;99.10;;;;;;5076165;28;20452;-56
2023/04/25 05:13:31;;;;;;;12.77;5.63;;;9.10;98.80;;;;;;5076349;28;20499;-57
2023/04/25 05:15:58;;;;;;;20.57;9.80;;;9.00;98.40;;;;;;5076489;28;20444;-56
2023/04/25 05:18:24;;;;;;;26.70;15.50;;;9.00;98.30;;;;;;5076193;28;20453;-57
2023/04/25 05:20:51;;;;;;;20.70;8.40;;;9.10;98.40;;;;;;5076084;28;20812;-57
2023/04/25 05:23:19;;;;;;;14.77;6.23;;;9.10;98.30;;;;;;5076199;28;20495;-56
2023/04/25 05:25:46;;;;;;;17.70;6.60;;;9.10;98.40;;;;;;5076409;28;20453;-57
2023/04/25 05:28:13;;;;;;;17.83;6.70;;;9.10;98.20;;;;;;5076201;28;20444;-57
2023/04/25 05:30:40;;;;;;;11.47;4.83;;;9.20;98.10;;;;;;5075978;28;20441;-56
2023/04/25 05:33:07;;;;;;;13.30;5.43;;;9.20;98.00;;;;;;5075996;28;20460;-56
2023/04/25 05:35:34;;;;;;;12.50;4.70;;;9.20;97.80;;;;;;5075947;28;20445;-57
2023/04/25 05:38:01;;;;;;;14.77;5.70;;;9.30;97.70;;;;;;5075691;28;20946;-57
2023/04/25 05:40:29;;;;;;;11.77;5.37;;;9.30;97.50;;;;;;5075912;28;20448;-56
2023/04/25 05:42:56;;;;;;;15.17;5.50;;;9.40;97.30;;;;;;5075907;28;20455;-57
2023/04/25 05:45:22;;;;;;;14.80;5.20;;;9.30;97.00;;;;;;5077461;28;20441;-56
2023/04/25 05:47:49;;;;;;;9.03;4.80;;;9.30;96.70;;;;;;5077117;28;20448;-56
2023/04/25 05:50:16;;;;;;;12.67;7.73;;;9.40;96.90;;;;;;5076383;28;20453;-57
2023/04/25 05:52:43;;;;;;;12.73;4.93;;;9.40;96.80;;;;;;5076264;28;20448;-57
2023/04/25 05:55:10;;;;;;;9.17;4.50;;;9.40;96.60;;;;;;5075958;28;20451;-57
2023/04/25 05:57:41;;;;;;;16.93;6.17;;;9.40;96.70;;;;;;5075740;28;20452;-56
2023/04/25 06:00:09;;;;;;;11.47;7.50;;;9.40;96.60;;;;;;5075799;28;20432;-56
2023/04/25 06:02:36;;;;;;;14.07;6.50;;;9.50;96.60;;;;;;5075281;28;20451;-57
2023/04/25 06:05:03;;;;;;;18.63;6.00;;;9.50;96.30;;;;;;5075407;28;20537;-56
2023/04/25 06:07:30;;;;;;;16.13;6.60;;;9.50;96.00;;;;;;5075090;28;20838;-57
2023/04/25 06:09:57;;;;;;;13.50;5.20;;;9.60;96.20;;;;;;5075449;28;20460;-57
2023/04/25 06:12:24;;;;;;;9.87;4.50;;;9.70;96.30;;;;;;5075521;28;20505;-57
2023/04/25 06:14:52;;;;;;;16.40;5.63;;;9.70;96.20;;;;;;5075411;28;20465;-56
2023/04/25 06:17:19;;;;;;;15.47;5.03;;;9.90;96.10;;;;;;5075274;28;20457;-57
2023/04/25 06:19:45;;;;;;;15.60;5.30;;;10.00;95.00;;;;;;5075246;28;20448;-57
2023/04/25 06:22:12;;;;;;;13.40;4.90;;;10.00;94.50;;;;;;5075182;28;20531;-57
2023/04/25 06:24:39;;;;;;;11.53;4.63;;;10.00;94.10;;;;;;5075066;28;20476;-56
2023/04/25 06:27:05;;;;;;;12.07;4.97;;;10.10;94.40;;;;;;5075130;28;20449;-57
2023/04/25 06:29:32;;;;;;;11.77;5.00;;;10.20;94.30;;;;;;5075161;28;20547;-57
2023/04/25 06:32:00;;;;;;;14.13;6.03;;;10.30;94.20;;;;;;5074723;28;20441;-57
2023/04/25 06:34:27;;;;;;;14.00;5.43;;;10.40;93.90;;;;;;5074915;28;20495;-57
2023/04/25 06:36:53;;;;;;;11.43;5.00;;;10.60;93.90;;;;;;5074932;28;20472;-57
2023/04/25 06:39:23;;;;;;;14.17;5.07;;;10.70;93.50;;;;;;5074822;28;20858;-57
2023/04/25 06:41:49;;;;;;;16.73;5.10;;;10.70;92.70;;;;;;5074714;28;20448;-56
2023/04/25 06:44:16;;;;;;;12.57;4.47;;;10.80;92.60;;;;;;5074575;28;20483;-57
2023/04/25 06:46:43;;;;;;;10.70;4.93;;;10.80;92.20;;;;;;5074623;28;20449;-57
2023/04/25 06:49:11;;;;;;;9.70;4.40;;;10.90;92.10;;;;;;5074306;28;20934;-57
2023/04/25 06:51:37;;;;;;;11.77;4.63;;;10.90;91.80;;;;;;5074191;28;20862;-56
2023/04/25 06:54:05;;;;;;;14.03;5.27;;;11.00;91.40;;;;;;5074123;28;20886;-57
2023/04/25 06:56:31;;;;;;;14.60;4.57;;;11.00;91.40;;;;;;5074486;28;20456;-57
2023/04/25 06:59:00;;;;;;;14.23;5.10;;;11.00;91.00;;;;;;5074345;28;20567;-56
2023/04/25 07:01:26;;;;;;;10.00;5.17;;;11.10;91.40;;;;;;5074364;28;20459;-56
2023/04/25 07:03:53;;;;;;;15.83;5.17;;;11.10;91.40;;;;;;5074158;28;20506;-57
2023/04/25 07:06:21;;;;;;;13.90;4.90;;;11.30;91.10;;;;;;5074292;28;20452;-57
2023/04/25 07:08:48;;;;;;;15.00;4.70;;;11.40;90.80;;;;;;5073957;28;20463;-57
2023/04/25 07:11:14;;;;;;;13.83;4.50;;;11.50;90.50;;;;;;5074306;28;20448;-56
2023/04/25 07:13:41;;;;;;;8.47;4.97;;;11.60;90.40;;;;;;5073137;28;20965;-57
2023/04/25 07:16:08;;;;;;;9.27;3.87;;;11.70;90.50;;;;;;5074091;28;20814;-57
2023/04/25 07:18:34;;;;;;;12.87;4.53;;;11.70;90.20;;;;;;5074028;28;20850;-57
2023/04/25 07:21:01;;;;;;;9.33;3.90;;;11.80;90.20;;;;;;5073921;28;20460;-56
2023/04/25 07:23:29;;;;;;;9.97;4.70;;;11.90;89.70;;;;;;5073773;28;20480;-56
2023/04/25 07:25:56;;;;;;;9.53;3.47;;;11.90;88.10;;;;;;5073936;28;20491;-57
2023/04/25 07:28:23;;;;;;;12.50;4.20;;;12.00;87.60;;;;;;5074413;28;20491;-56
2023/04/25 07:30:50;;;;;;;12.40;3.80;;;12.10;87.10;;;;;;5073791;28;20514;-56
2023/04/25 07:33:16;;;;;;;10.13;3.90;;;12.20;85.90;;;;;;5073775;28;20836;-56
2023/04/25 07:35:43;;;;;;;16.17;3.50;;;12.20;84.20;;;;;;5073732;28;20441;-56
2023/04/25 07:38:10;;;;;;;9.30;3.63;;;12.20;83.30;;;;;;5073417;28;20452;-57
2023/04/25 07:40:38;;;;;;;8.40;3.50;;;12.30;82.70;;;;;;5073419;28;20853;-56
2023/04/25 07:43:04;;;;;;;11.00;4.17;;;12.20;81.00;;;;;;5074116;28;20468;-57
2023/04/25 07:45:31;;;;;;;16.27;4.27;;;12.30;82.10;;;;;;5073563;28;20491;-56
2023/04/25 07:47:58;;;;;;;9.23;3.43;;;12.40;83.40;;;;;;5073652;28;20452;-57
2023/04/25 07:50:25;;;;;;;10.13;3.17;;;12.50;83.40;;;;;;5073589;28;20459;-57
2023/04/25 07:52:51;;;;;;;10.53;3.80;;;12.60;81.10;;;;;;5073265;28;20874;-57
2023/04/25 07:55:18;;;;;;;16.13;3.53;;;12.90;81.60;;;;;;5073201;28;20854;-57
2023/04/25 07:57:46;;;;;;;6.20;3.00;;;13.00;78.50;;;;;;5073452;28;20444;-57
2023/04/25 08:00:14;;;;;;;8.33;3.50;;;13.10;75.90;;;;;;5073481;28;20448;-57
2023/04/25 08:02:41;;;;;;;10.33;2.80;;;13.10;74.00;;;;;;5074206;28;20454;-57
2023/04/25 08:05:11;;;;;;;6.47;2.50;;;13.20;74.90;;;;;;5073309;28;20491;-56
2023/04/25 08:07:38;;;;;;;7.53;3.00;;;13.30;75.20;;;;;;5073202;28;20488;-57
2023/04/25 08:10:06;;;;;;;6.37;3.20;;;13.40;75.70;;;;;;5073126;28;20433;-57
2023/04/25 08:12:32;;;;;;;9.30;3.10;;;13.50;72.20;;;;;;5073289;28;20460;-57
2023/04/25 08:15:00;;;;;;;8.63;3.60;;;13.80;73.60;;;;;;5073403;28;20468;-57
2023/04/25 08:17:27;;;;;;;8.03;2.83;;;13.90;71.30;;;;;;5073481;28;20449;-57
2023/04/25 08:19:55;;;;;;;10.20;3.27;;;14.00;70.20;;;;;;5073397;28;20453;-57
2023/04/25 08:22:21;;;;;;;8.47;3.00;;;14.00;67.80;;;;;;5073277;28;21000;-57
2023/04/25 08:24:48;;;;;;;7.87;3.20;;;13.90;68.00;;;;;;5074477;28;20514;-57
2023/04/25 08:27:15;;;;;;;8.73;2.20;;;13.90;67.30;;;;;;5077708;28;20449;-57
2023/04/25 08:29:43;;;;;;;9.80;3.00;;;13.90;67.10;;;;;;5077870;28;20444;-57
2023/04/25 08:32:11;;;;;;;6.17;2.00;;;13.90;66.40;;;;;;5077800;28;20467;-57
2023/04/25 08:34:39;;;;;;;8.03;2.20;;;13.90;64.20;;;;;;5078307;28;20461;-56
2023/04/25 08:37:05;;;;;;;7.53;3.00;;;14.00;64.80;;;;;;5082027;28;20455;-56
2023/04/25 08:39:32;;;;;;;10.40;2.60;;;14.30;66.40;;;;;;5082374;28;20452;-57
2023/04/25 08:42:00;;;;;;;8.40;2.47;;;14.50;64.60;;;;;;5080630;28;20449;-57
2023/04/25 08:44:27;;;;;;;6.93;1.97;;;14.70;62.50;;;;;;5079366;28;20493;-57
2023/04/25 08:46:56;;;;;;;6.87;2.70;;;14.80;62.60;;;;;;5078346;28;20441;-57
2023/04/25 08:49:24;;;;;;;5.30;2.70;;;15.00;63.00;;;;;;5077198;28;20451;-57
2023/04/25 08:51:53;;;;;;;5.37;2.50;;;15.00;61.50;;;;;;5077383;28;20979;-57
2023/04/25 08:54:26;;;;;;;10.73;2.30;;;15.10;61.40;;;;;;5077142;28;20464;-57
2023/04/25 08:56:52;;;;;;;11.07;2.93;;;15.00;58.80;;;;;;5077069;28;20425;-57
2023/04/25 08:59:20;;;;;;;8.40;3.00;;;15.00;59.10;;;;;;5076612;28;20960;-57
2023/04/25 09:01:46;;;;;;;9.23;3.03;;;15.10;59.60;;;;;;5076960;28;20447;-57
2023/04/25 09:04:14;;;;;;;10.10;2.53;;;15.10;58.50;;;;;;5076615;28;20488;-57
2023/04/25 09:06:42;;;;;;;8.93;2.50;;;15.20;58.60;;;;;;5076539;28;20455;-57
2023/04/25 09:09:10;;;;;;;8.70;2.40;;;15.30;58.00;;;;;;5076215;28;20468;-57
2023/04/25 09:11:37;;;;;;;4.93;2.17;;;15.30;58.80;;;;;;5076062;28;20453;-56
2023/04/25 09:14:15;;;;;;;6.47;1.93;;;15.40;56.70;;;;;;5076200;28;21010;-57
2023/04/25 09:17:00;;;;;;;7.20;2.33;;;15.30;57.60;;;;;;5076367;28;20448;-58
2023/04/25 09:19:29;;;;;;;8.00;2.30;;;15.30;58.20;;;;;;5076393;28;20432;-58
2023/04/25 09:21:58;;;;;;;6.10;2.40;;;15.10;57.00;;;;;;5076366;28;20494;-58
2023/04/25 09:24:36;;;;;;;11.87;2.80;;;14.90;56.80;;;;;;5076025;28;20484;-55
2023/04/25 09:27:07;;;;;;;7.60;2.30;;;14.70;58.50;;;;;;5076163;28;20437;-56
2023/04/25 09:29:34;;;;;;;14.07;3.03;;;14.60;59.20;;;;;;5065946;28;20528;-56
2023/04/25 09:32:17;;;;;;;12.93;3.20;;;14.80;61.50;;;;;;5070391;28;20448;-56
2023/04/25 09:34:47;;;;;;;6.43;2.40;;;15.40;63.20;;;;;;5076014;28;20471;-55
2023/04/25 09:37:19;;;;;;;15.03;2.80;;;16.00;62.70;;;;;;5075338;28;20486;-56
2023/04/25 09:39:46;;;;;;;9.50;2.90;;;16.40;59.40;;;;;;5075948;28;20468;-56
2023/04/25 09:42:14;;;;;;;3.80;2.20;;;16.60;57.50;;;;;;5075918;28;20540;-56
2023/04/25 09:44:44;;;;;;;5.90;2.63;;;16.60;56.50;;;;;;5075391;28;20504;-56
2023/04/25 09:47:12;;;;;;;5.67;2.33;;;16.60;56.10;;;;;;5075816;28;20624;-56
2023/04/25 09:49:41;;;;;;;8.27;2.47;;;16.40;54.90;;;;;;5075775;28;20441;-56
2023/04/25 09:52:08;;;;;;;7.13;2.10;;;16.30;54.60;;;;;;5075653;28;20515;-57
2023/04/25 09:54:36;;;;;;;3.23;1.63;;;16.20;54.10;;;;;;5075740;28;20457;-56
2023/04/25 09:57:12;;;;;;;6.27;2.10;;;16.20;55.50;;;;;;5075543;28;20441;-56
2023/04/25 09:59:43;;;;;;;9.70;2.13;;;16.50;54.60;;;;;;5075996;28;20473;-56
2023/04/25 10:02:11;;;;;;;4.60;2.03;;;16.60;52.20;;;;;;5075607;28;20443;-56
2023/04/25 10:04:39;;;;;;;7.33;2.67;;;16.50;52.80;;;;;;5068820;28;21009;-57
2023/04/25 10:07:07;;;;;;;6.00;2.37;;;16.40;54.00;;;;;;5055264;28;20532;-56
2023/04/25 10:09:39;;;;;;;4.63;1.97;;;16.20;54.60;;;;;;5054778;28;20464;-56
2023/04/25 10:12:07;;;;;;;5.33;1.70;;;16.10;55.20;;;;;;5055321;28;20484;-56
2023/04/25 10:14:34;;;;;;;5.73;1.83;;;16.00;55.20;;;;;;5054936;28;20501;-56
2023/04/25 10:17:01;;;;;;;4.33;1.47;;;15.80;53.70;;;;;;5055419;28;20446;-56
2023/04/25 10:19:29;;;;;;;6.20;2.03;;;15.80;53.60;;;;;;5054985;28;20437;-57
2023/04/25 10:22:04;;;;;;;4.60;1.80;;;15.70;53.80;;;;;;5055237;28;20823;-56
2023/04/25 10:24:30;;;;;;;4.93;1.80;;;15.70;53.80;;;;;;5054992;28;20596;-57
2023/04/25 10:26:59;;;;;;;4.73;2.00;;;15.70;53.90;;;;;;5054516;28;20454;-56
2023/04/25 10:29:27;;;;;;;5.20;1.67;;;15.90;54.60;;;;;;5071454;28;20449;-57
2023/04/25 10:31:54;;;;;;;6.27;2.00;;;16.10;53.50;;;;;;5074989;28;20883;-56
2023/04/25 10:34:25;;;;;;;5.87;2.13;;;16.30;52.50;;;;;;5074767;28;20650;-56
2023/04/25 10:36:53;;;;;;;4.30;1.97;;;16.80;53.60;;;;;;5074905;28;20453;-56
2023/04/25 10:39:24;;;;;;;6.23;1.70;;;17.30;50.00;;;;;;5074790;28;20445;-56
2023/04/25 10:41:56;;;;;;;2.47;1.60;;;17.40;49.30;;;;;;5074815;28;20514;-56
2023/04/25 10:44:27;;;;;;;5.40;1.77;;;17.20;48.50;;;;;;5074535;28;20558;-56
2023/04/25 10:46:56;;;;;;;5.57;1.80;;;17.10;50.00;;;;;;5074641;28;20469;-56
2023/04/25 10:49:34;;;;;;;8.67;2.10;;;17.00;51.30;;;;;;5073595;28;20477;-56
2023/04/25 10:52:16;;;;;;;3.13;1.60;;;17.10;48.50;;;;;;5074289;28;20448;-56
2023/04/25 10:54:43;;;;;;;10.47;2.20;;;17.50;47.60;;;;;;5074429;28;20469;-57
2023/04/25 10:57:29;;;;;;;5.83;1.77;;;17.80;43.90;;;;;;5074200;28;20945;-56
2023/04/25 11:00:00;;;;;;;5.33;1.73;;;17.90;45.70;;;;;;5075316;28;20767;-56
2023/04/25 11:02:28;;;;;;;4.97;1.40;;;17.90;45.10;;;;;;5074973;28;20436;-56
2023/04/25 11:04:55;;;;;;;4.40;1.57;;;18.10;44.50;;;;;;5074092;28;20485;-57
2023/04/25 11:07:34;;;;;;;3.77;1.50;;;18.20;43.60;;;;;;5073793;28;20481;-57
2023/04/25 11:10:03;;;;;;;3.40;1.60;;;18.50;43.50;;;;;;5074300;28;20444;-57
2023/04/25 11:12:31;;;;;;;7.20;2.30;;;18.80;42.30;;;;;;5074107;28;20487;-56
2023/04/25 11:15:04;;;;;;;4.47;1.77;;;19.10;41.60;;;;;;5074004;28;20469;-56
2023/04/25 11:17:31;;;;;;;4.37;1.60;;;20.10;39.70;;;;;;5074051;28;20448;-56
2023/04/25 11:19:58;;;;;;;4.43;1.53;;;21.30;38.40;;;;;;5074031;28;20456;-57
2023/04/25 11:22:25;;;;;;;4.03;1.23;;;22.30;38.50;;;;;;5074066;28;20532;-56
2023/04/25 11:24:51;;;;;;;5.60;1.63;;;23.50;35.00;;;;;;5073469;28;20887;-57
2023/04/25 11:27:18;;;;;;;3.07;1.77;;;24.40;29.40;;;;;;5074836;28;20448;-57
2023/04/25 11:29:47;;;;;;;3.43;1.60;;;25.10;29.30;;;;;;5075372;28;20491;-57
2023/04/25 11:32:16;;;;;;;5.23;1.70;;;25.00;27.20;;;;;;5074345;28;20922;-57
2023/04/25 11:34:44;;;;;;;3.47;2.00;;;24.70;28.40;;;;;;5074551;28;20476;-57
2023/04/25 11:37:12;;;;;;;4.87;1.83;;;25.20;28.30;;;;;;5074535;28;20868;-57
2023/04/25 11:39:39;;;;;;;4.83;2.30;;;25.70;28.40;;;;;;5074115;28;20480;-57
2023/04/25 11:42:06;;;;;;;5.30;1.80;;;25.70;27.20;;;;;;5073890;28;20449;-56
2023/04/25 11:44:33;;;;;;;2.60;1.40;;;25.50;27.50;;;;;;5073732;28;20555;-57
2023/04/25 11:47:00;;;;;;;5.40;2.50;;;24.60;27.20;;;;;;5073373;28;21026;-56
2023/04/25 11:49:31;;;;;;;9.73;1.80;;;23.50;29.50;;;;;;5073809;28;20448;-56
2023/04/25 11:51:58;;;;;;;10.50;2.40;;;22.70;30.50;;;;;;5073406;28;20807;-56
2023/04/25 11:54:24;;;;;;;4.63;1.53;;;22.00;30.80;;;;;;5073773;28;20559;-56
2023/04/25 11:56:51;;;;;;;3.00;1.90;;;21.40;32.70;;;;;;5073027;28;20817;-56
2023/04/25 11:59:24;;;;;;;3.80;1.67;;;20.80;33.70;;;;;;5072921;28;20961;-56
2023/04/25 12:01:51;;;;;;;9.80;1.90;;;20.60;35.30;;;;;;5073569;28;20464;-56
2023/04/25 12:04:20;;;;;;;5.03;2.20;;;20.50;36.90;;;;;;5073143;28;20844;-57
2023/04/25 12:06:50;;;;;;;3.70;1.60;;;20.50;38.00;;;;;;5073334;28;20480;-56
2023/04/25 12:09:18;;;;;;;5.33;2.00;;;20.30;37.00;;;;;;5073069;28;20471;-57
2023/04/25 12:11:47;;;;;;;3.50;1.60;;;20.00;36.40;;;;;;5073371;28;20441;-56
2023/04/25 12:14:23;;;;;;;4.80;2.30;;;19.80;37.30;;;;;;5073298;28;20837;-56
2023/04/25 12:16:52;;;;;;;3.80;1.40;;;20.20;37.80;;;;;;5073387;28;20432;-57
2023/04/25 12:19:20;;;;;;;5.00;1.50;;;20.80;36.70;;;;;;5073087;28;20444;-57
2023/04/25 12:21:49;;;;;;;3.07;1.53;;;21.70;35.40;;;;;;5073249;28;20531;-56
2023/04/25 12:24:18;;;;;;;3.60;1.90;;;22.50;33.60;;;;;;5073119;28;20472;-57
2023/04/25 12:26:54;;;;;;;2.77;1.37;;;22.80;30.30;;;;;;5072783;28;21005;-56
2023/04/25 12:29:22;;;;;;;2.13;1.30;;;22.80;32.30;;;;;;5072997;28;20909;-56
2023/04/25 12:31:49;;;;;;;2.93;1.20;;;22.60;30.10;;;;;;5073231;28;20453;-56
2023/04/25 12:34:16;;;;;;;6.47;1.03;;;22.50;29.30;;;;;;5072831;28;20978;-57
2023/04/25 12:36:43;;;;;;;2.70;1.33;;;22.70;29.80;;;;;;5072613;28;20942;-57
2023/04/25 12:39:15;;;;;;;3.23;1.70;;;23.60;30.90;;;;;;5073135;28;20476;-56
2023/04/25 12:41:42;;;;;;;2.60;1.60;;;24.80;30.70;;;;;;5073098;28;20433;-56
2023/04/25 12:44:09;;;;;;;1.83;0.90;;;26.10;26.30;;;;;;5073030;28;20472;-57
2023/04/25 12:46:36;;;;;;;2.50;0.90;;;27.10;25.70;;;;;;5072975;28;20844;-57
2023/04/25 12:49:03;;;;;;;1.17;1.07;;;28.10;23.80;;;;;;5073048;28;20452;-57